createdAt,value
2022-09-14T00:01:36.347Z,60.30
2022-09-14T00:04:07.016Z,60.50
2022-09-14T00:06:34.277Z,60.60
2022-09-14T00:09:02.336Z,60.70
2022-09-14T00:11:32.126Z,60.70
2022-09-14T00:14:00.948Z,60.70
2022-09-14T00:16:31.300Z,60.70
2022-09-14T00:19:05.682Z,60.90
2022-09-14T00:21:35.478Z,60.70
2022-09-14T00:24:03.880Z,60.80
2022-09-14T00:26:31.207Z,61.00
2022-09-14T00:29:00.383Z,61.10
2022-09-14T00:31:27.629Z,61.00
2022-09-14T00:33:55.137Z,60.90
2022-09-14T00:36:27.559Z,61.10
2022-09-14T00:38:57.883Z,61.00
2022-09-14T00:41:28.001Z,61.10
2022-09-14T00:44:00.081Z,61.20
2022-09-14T00:46:38.885Z,61.20
2022-09-14T00:49:13.486Z,61.30
2022-09-14T00:52:10.418Z,61.30
2022-09-14T00:54:42.373Z,61.40
2022-09-14T00:57:10.020Z,61.70
2022-09-14T00:59:39.786Z,61.80
2022-09-14T01:02:12.103Z,61.80
2022-09-14T01:04:39.248Z,61.90
2022-09-14T01:07:40.303Z,61.90
2022-09-14T01:10:26.354Z,62.20
2022-09-14T01:13:12.131Z,62.30
2022-09-14T01:15:52.990Z,62.30
2022-09-14T01:18:44.576Z,62.40
2022-09-14T01:21:16.362Z,62.50
2022-09-14T01:23:49.306Z,62.30
2022-09-14T01:26:36.717Z,62.60
2022-09-14T01:29:23.843Z,62.70
2022-09-14T01:31:56.186Z,62.70
2022-09-14T01:34:33.045Z,62.70
2022-09-14T01:37:12.980Z,62.80
2022-09-14T01:39:48.030Z,63.00
2022-09-14T01:42:17.276Z,63.20
2022-09-14T01:44:48.706Z,63.00
2022-09-14T01:47:26.442Z,63.10
2022-09-14T01:49:59.624Z,63.20
2022-09-14T01:52:36.498Z,63.30
2022-09-14T01:55:11.815Z,63.20
2022-09-14T01:58:04.811Z,63.10
2022-09-14T02:00:33.446Z,63.00
2022-09-14T02:03:18.810Z,63.20
2022-09-14T02:05:49.450Z,63.30
2022-09-14T02:08:17.101Z,63.20
2022-09-14T02:10:44.418Z,63.40
2022-09-14T02:13:12.218Z,63.60
2022-09-14T02:15:39.639Z,63.50
2022-09-14T02:18:06.990Z,63.70
2022-09-14T02:20:58.943Z,63.60
2022-09-14T02:23:26.727Z,63.60
2022-09-14T02:25:54.304Z,63.80
2022-09-14T02:28:21.997Z,63.60
2022-09-14T02:31:08.004Z,63.70
2022-09-14T02:33:52.540Z,63.90
2022-09-14T02:36:49.068Z,64.00
2022-09-14T02:39:39.266Z,64.10
2022-09-14T02:42:24.138Z,63.90
2022-09-14T02:45:03.701Z,63.90
2022-09-14T02:47:57.301Z,63.80
2022-09-14T02:50:50.827Z,63.70
2022-09-14T02:53:48.276Z,63.80
2022-09-14T02:56:17.481Z,64.00
2022-09-14T02:58:45.886Z,64.20
2022-09-14T03:01:19.926Z,64.20
2022-09-14T03:03:47.540Z,64.20
2022-09-14T03:06:15.059Z,64.40
2022-09-14T03:08:43.259Z,64.60
2022-09-14T03:11:10.631Z,64.50
2022-09-14T03:13:37.856Z,64.50
2022-09-14T03:16:06.779Z,64.40
2022-09-14T03:18:35.042Z,64.50
2022-09-14T03:21:05.140Z,64.50
2022-09-14T03:23:37.199Z,64.70
2022-09-14T03:26:08.687Z,65.00
2022-09-14T03:28:36.091Z,64.80
2022-09-14T03:31:06.059Z,65.00
2022-09-14T03:33:33.524Z,64.80
2022-09-14T03:36:01.806Z,64.90
2022-09-14T03:38:30.248Z,65.10
2022-09-14T03:40:58.318Z,65.10
2022-09-14T03:43:26.881Z,65.20
2022-09-14T03:45:54.085Z,65.30
2022-09-14T03:48:22.293Z,65.10
2022-09-14T03:50:49.458Z,65.10
2022-09-14T03:53:16.542Z,65.20
2022-09-14T03:55:43.782Z,65.40
2022-09-14T03:58:10.956Z,65.50
2022-09-14T04:00:40.454Z,65.60
2022-09-14T04:03:07.676Z,65.80
2022-09-14T04:05:34.833Z,65.90
2022-09-14T04:08:02.191Z,66.00
2022-09-14T04:10:29.255Z,66.10
2022-09-14T04:12:56.430Z,66.00
2022-09-14T04:15:23.522Z,66.20
2022-09-14T04:17:51.344Z,66.20
2022-09-14T04:20:18.399Z,66.40
2022-09-14T04:22:46.127Z,66.30
2022-09-14T04:25:13.427Z,66.40
2022-09-14T04:27:40.582Z,66.40
2022-09-14T04:30:08.143Z,66.30
2022-09-14T04:32:35.362Z,66.20
2022-09-14T04:35:02.481Z,66.30
2022-09-14T04:37:32.767Z,66.20
2022-09-14T04:39:59.998Z,66.30
2022-09-14T04:42:27.191Z,66.30
2022-09-14T04:44:54.314Z,66.20
2022-09-14T04:47:21.446Z,66.10
2022-09-14T04:49:49.206Z,66.00
2022-09-14T04:52:16.400Z,65.90
2022-09-14T04:54:43.975Z,65.90
2022-09-14T04:57:11.104Z,66.00
2022-09-14T04:59:38.285Z,66.00
2022-09-14T05:02:05.666Z,66.00
2022-09-14T05:04:32.854Z,66.30
2022-09-14T05:07:00.135Z,66.30
2022-09-14T05:09:27.283Z,66.40
2022-09-14T05:11:54.548Z,66.10
2022-09-14T05:14:21.708Z,66.10
2022-09-14T05:16:48.835Z,66.50
2022-09-14T05:19:18.145Z,66.10
2022-09-14T05:21:48.606Z,66.50
2022-09-14T05:24:17.906Z,66.70
2022-09-14T05:26:46.266Z,66.60
2022-09-14T05:29:19.032Z,66.30
2022-09-14T05:31:46.984Z,66.30
2022-09-14T05:34:14.668Z,65.90
2022-09-14T05:36:42.147Z,65.80
2022-09-14T05:39:09.523Z,66.10
2022-09-14T05:41:37.572Z,66.60
2022-09-14T05:44:07.858Z,66.10
2022-09-14T05:46:35.416Z,65.50
2022-09-14T05:49:04.242Z,65.00
2022-09-14T05:51:31.428Z,65.30
2022-09-14T05:53:59.424Z,64.30
2022-09-14T05:56:29.108Z,63.80
2022-09-14T05:58:56.573Z,64.10
2022-09-14T06:01:26.536Z,63.40
2022-09-14T06:03:55.483Z,62.50
2022-09-14T06:06:23.580Z,61.90
2022-09-14T06:08:53.820Z,61.30
2022-09-14T06:11:24.193Z,60.90
2022-09-14T06:13:51.933Z,60.60
2022-09-14T06:16:21.158Z,60.50
2022-09-14T06:18:49.418Z,60.30
2022-09-14T06:21:19.967Z,60.40
2022-09-14T06:23:48.924Z,60.10
2022-09-14T06:26:16.655Z,59.60
2022-09-14T06:28:44.070Z,59.40
2022-09-14T06:31:22.470Z,59.10
2022-09-14T06:33:55.614Z,59.00
2022-09-14T06:36:25.486Z,58.60
2022-09-14T06:38:53.765Z,58.40
2022-09-14T06:41:29.210Z,58.10
2022-09-14T06:43:58.455Z,57.40
2022-09-14T06:46:28.616Z,57.40
2022-09-14T06:48:57.460Z,57.10
2022-09-14T06:51:29.339Z,57.40
2022-09-14T06:54:00.277Z,57.50
2022-09-14T06:56:29.293Z,57.70
2022-09-14T06:58:58.039Z,58.00
2022-09-14T07:01:26.158Z,57.50
2022-09-14T07:03:53.849Z,57.40
2022-09-14T07:06:23.238Z,57.60
2022-09-14T07:08:51.825Z,58.00
2022-09-14T07:11:21.731Z,58.30
2022-09-14T07:13:48.963Z,57.90
2022-09-14T07:16:16.316Z,56.10
2022-09-14T07:18:43.945Z,55.30
2022-09-14T07:21:20.773Z,55.00
2022-09-14T07:23:48.783Z,55.10
2022-09-14T07:26:23.452Z,54.00
2022-09-14T07:28:55.304Z,55.00
2022-09-14T07:31:25.464Z,54.60
2022-09-14T07:33:57.325Z,53.50
2022-09-14T07:36:25.936Z,52.80
2022-09-14T07:38:53.887Z,52.20
2022-09-14T07:41:23.859Z,51.70
2022-09-14T07:43:53.567Z,50.60
2022-09-14T07:46:21.837Z,50.00
2022-09-14T07:48:54.436Z,48.50
2022-09-14T07:51:22.297Z,46.40
2022-09-14T07:53:49.610Z,46.00
2022-09-14T07:56:17.099Z,45.80
2022-09-14T07:58:45.023Z,45.30
2022-09-14T08:01:20.158Z,45.40
2022-09-14T08:03:48.774Z,45.00
2022-09-14T08:06:20.546Z,45.10
2022-09-14T08:08:51.268Z,44.90
2022-09-14T08:11:20.140Z,45.10
2022-09-14T08:13:50.996Z,44.50
2022-09-14T08:16:19.352Z,44.50
2022-09-14T08:18:48.153Z,44.30
2022-09-14T08:21:17.468Z,44.10
2022-09-14T08:23:45.103Z,44.10
2022-09-14T08:26:17.563Z,43.80
2022-09-14T08:28:45.604Z,44.40
2022-09-14T08:31:15.269Z,44.00
2022-09-14T08:33:47.951Z,44.10
2022-09-14T08:36:17.919Z,44.00
2022-09-14T08:38:45.229Z,44.10
2022-09-14T08:41:39.601Z,44.10
2022-09-14T08:44:34.450Z,42.80
2022-09-14T08:47:19.408Z,43.60
2022-09-14T08:50:01.856Z,44.10
2022-09-14T08:52:40.729Z,43.40
2022-09-14T08:55:21.228Z,43.40
2022-09-14T08:58:11.743Z,42.80
2022-09-14T09:01:06.268Z,42.20
2022-09-14T09:03:42.413Z,42.40
2022-09-14T09:06:22.312Z,41.80
2022-09-14T09:09:04.757Z,41.00
2022-09-14T09:11:41.867Z,41.40
2022-09-14T09:14:27.029Z,41.50
2022-09-14T09:16:57.798Z,40.10
2022-09-14T09:19:34.632Z,40.60
2022-09-14T09:22:04.909Z,40.80
2022-09-14T09:24:40.862Z,41.70
2022-09-14T09:27:15.795Z,42.30
2022-09-14T09:29:44.038Z,42.10
2022-09-14T09:32:22.453Z,41.60
2022-09-14T09:35:01.491Z,39.50
2022-09-14T09:37:51.611Z,41.50
2022-09-14T09:40:34.506Z,41.80
2022-09-14T09:43:05.017Z,41.00
2022-09-14T09:46:00.804Z,38.40
2022-09-14T09:48:38.469Z,38.20
2022-09-14T09:51:14.225Z,38.50
2022-09-14T09:54:04.159Z,38.30
2022-09-14T09:56:33.917Z,38.30
2022-09-14T09:59:01.179Z,38.40
2022-09-14T10:01:34.278Z,38.90
2022-09-14T10:04:05.683Z,39.10
2022-09-14T10:06:42.262Z,39.50
2022-09-14T10:09:14.672Z,38.80
2022-09-14T10:11:42.160Z,38.10
2022-09-14T10:14:27.153Z,37.40
2022-09-14T10:17:04.054Z,37.40
2022-09-14T10:19:32.412Z,36.00
2022-09-14T10:22:26.356Z,36.00
2022-09-14T10:25:02.898Z,36.40
2022-09-14T10:27:40.065Z,36.70
2022-09-14T10:30:17.332Z,36.80
2022-09-14T10:33:04.675Z,36.40
2022-09-14T10:36:04.490Z,37.10
2022-09-14T10:39:00.233Z,37.20
2022-09-14T10:41:36.608Z,36.50
2022-09-14T10:44:22.772Z,35.80
2022-09-14T10:47:09.324Z,36.30
2022-09-14T10:50:19.733Z,36.60
2022-09-14T10:53:30.029Z,36.20
2022-09-14T10:56:10.928Z,36.10
2022-09-14T10:58:40.955Z,36.50
2022-09-14T11:01:23.984Z,36.00
2022-09-14T11:04:17.446Z,35.20
2022-09-14T11:07:14.198Z,35.20
2022-09-14T11:10:02.063Z,33.70
2022-09-14T11:12:47.871Z,32.40
2022-09-14T11:15:37.250Z,31.80
2022-09-14T11:18:29.347Z,31.90
2022-09-14T11:21:14.632Z,31.40
2022-09-14T11:23:54.604Z,31.20
2022-09-14T11:26:25.662Z,31.90
2022-09-14T11:29:11.312Z,30.50
2022-09-14T11:32:10.086Z,30.70
2022-09-14T11:34:47.677Z,35.50
2022-09-14T11:37:19.506Z,39.50
2022-09-14T11:40:02.239Z,40.00
2022-09-14T11:42:47.806Z,41.60
2022-09-14T11:45:30.124Z,40.50
2022-09-14T11:48:02.900Z,40.10
2022-09-14T11:50:33.751Z,39.10
2022-09-14T11:53:04.245Z,40.40
2022-09-14T11:55:32.642Z,40.90
2022-09-14T11:58:00.915Z,40.90
2022-09-14T12:01:01.793Z,41.20
2022-09-14T12:03:57.569Z,41.60
2022-09-14T12:06:31.040Z,43.10
2022-09-14T12:09:24.154Z,45.00
2022-09-14T12:11:58.604Z,44.50
2022-09-14T12:14:28.966Z,44.40
2022-09-14T12:17:37.812Z,43.60
2022-09-14T12:20:43.361Z,44.30
2022-09-14T12:23:27.083Z,45.20
2022-09-14T12:26:06.399Z,46.20
2022-09-14T12:28:37.323Z,45.20
2022-09-14T12:31:04.739Z,45.30
2022-09-14T12:33:32.129Z,43.40
2022-09-14T12:36:11.570Z,44.20
2022-09-14T12:38:38.799Z,44.80
2022-09-14T12:41:08.719Z,42.60
2022-09-14T12:43:35.806Z,42.50
2022-09-14T12:46:19.941Z,40.50
2022-09-14T12:48:51.092Z,40.40
2022-09-14T12:51:44.673Z,41.90
2022-09-14T12:54:24.657Z,44.40
2022-09-14T12:56:52.391Z,43.00
2022-09-14T12:59:31.197Z,44.70
2022-09-14T13:02:10.420Z,46.10
2022-09-14T13:04:39.473Z,45.40
2022-09-14T13:07:15.275Z,47.60
2022-09-14T13:09:51.470Z,46.70
2022-09-14T13:12:28.439Z,46.90
2022-09-14T13:15:02.447Z,46.60
2022-09-14T13:17:30.196Z,45.00
2022-09-14T13:19:59.876Z,46.40
2022-09-14T13:22:32.194Z,46.30
2022-09-14T13:25:01.660Z,46.90
2022-09-14T13:27:35.101Z,48.50
2022-09-14T13:30:14.400Z,49.30
2022-09-14T13:32:49.285Z,48.90
2022-09-14T13:35:20.295Z,50.60
2022-09-14T13:37:48.493Z,51.30
2022-09-14T13:40:15.803Z,50.30
2022-09-14T13:42:43.474Z,50.20
2022-09-14T13:45:13.699Z,49.50
2022-09-14T13:47:41.098Z,50.80
2022-09-14T13:50:08.851Z,52.70
2022-09-14T13:55:28.383Z,57.00
2022-09-14T13:58:21.582Z,59.10
2022-09-14T14:00:57.229Z,60.70
2022-09-14T14:03:33.506Z,62.50
2022-09-14T14:06:24.206Z,63.90
2022-09-14T14:08:57.628Z,64.60
2022-09-14T14:11:31.305Z,65.50
2022-09-14T14:14:12.511Z,65.60
2022-09-14T14:16:39.789Z,65.60
2022-09-14T14:19:31.235Z,66.30
2022-09-14T14:22:20.081Z,66.10
2022-09-14T14:27:47.062Z,66.00
2022-09-14T14:30:17.289Z,65.90
2022-09-14T14:32:50.141Z,65.40
2022-09-14T14:35:20.317Z,65.70
2022-09-14T14:37:48.862Z,65.30
2022-09-14T14:40:17.372Z,64.50
2022-09-14T14:42:45.608Z,64.40
2022-09-14T14:45:19.361Z,63.70
2022-09-14T14:47:48.136Z,64.30
2022-09-14T14:50:22.062Z,65.00
2022-09-14T14:52:51.649Z,64.60
2022-09-14T14:55:21.194Z,62.40
2022-09-14T14:57:49.408Z,63.20
2022-09-14T15:00:20.437Z,63.50
2022-09-14T15:02:48.046Z,63.90
2022-09-14T15:05:15.609Z,64.80
2022-09-14T15:07:43.154Z,63.60
2022-09-14T15:10:14.701Z,63.60
2022-09-14T15:12:42.732Z,64.00
2022-09-14T15:15:25.879Z,64.00
2022-09-14T15:17:54.313Z,64.20
2022-09-14T15:20:21.956Z,63.70
2022-09-14T15:22:49.401Z,63.30
2022-09-14T15:25:17.992Z,62.40
2022-09-14T15:27:45.457Z,63.20
2022-09-14T15:30:13.781Z,63.00
2022-09-14T15:32:40.908Z,62.90
2022-09-14T15:35:11.280Z,62.60
2022-09-14T15:37:38.711Z,62.50
2022-09-14T15:40:06.456Z,62.30
2022-09-14T15:42:33.729Z,61.70
2022-09-14T15:45:00.828Z,62.00
2022-09-14T15:47:29.238Z,61.50
2022-09-14T15:50:01.204Z,62.00
2022-09-14T15:52:28.441Z,61.70
2022-09-14T15:54:55.704Z,61.20
2022-09-14T15:57:22.925Z,61.30
2022-09-14T15:59:50.271Z,61.10
2022-09-14T16:02:20.258Z,60.90
2022-09-14T16:04:47.561Z,61.10
2022-09-14T16:07:15.727Z,61.50
2022-09-14T16:09:43.082Z,61.90
2022-09-14T16:12:12.802Z,61.60
2022-09-14T16:14:40.235Z,61.40
2022-09-14T16:17:09.198Z,61.40
2022-09-14T16:19:36.335Z,61.30
2022-09-14T16:22:04.062Z,61.30
2022-09-14T16:24:32.071Z,61.60
2022-09-14T16:26:59.727Z,61.90
2022-09-14T16:29:27.747Z,62.00
2022-09-14T16:31:55.083Z,61.80
2022-09-14T16:34:26.018Z,61.70
2022-09-14T16:36:53.784Z,61.20
2022-09-14T16:39:26.751Z,61.20
2022-09-14T16:41:55.959Z,61.30
2022-09-14T16:44:25.988Z,61.70
2022-09-14T16:46:54.655Z,61.80
2022-09-14T16:49:27.079Z,62.00
2022-09-14T16:51:56.086Z,62.00
2022-09-14T16:54:25.489Z,62.10
2022-09-14T16:56:57.140Z,62.30
2022-09-14T16:59:27.136Z,62.60
2022-09-14T17:01:55.507Z,62.80
2022-09-14T17:04:24.407Z,63.30
2022-09-14T17:06:53.087Z,63.80
2022-09-14T17:09:26.782Z,64.40
2022-09-14T17:11:55.445Z,64.50
2022-09-14T17:14:27.062Z,64.80
2022-09-14T17:16:55.261Z,65.20
2022-09-14T17:19:22.950Z,65.60
2022-09-14T17:21:50.815Z,65.40
2022-09-14T17:24:19.098Z,65.50
2022-09-14T17:26:47.519Z,65.30
2022-09-14T17:29:15.458Z,65.30
2022-09-14T17:31:44.011Z,65.60
2022-09-14T17:34:13.517Z,65.60
2022-09-14T17:36:40.863Z,65.70
2022-09-14T17:39:12.074Z,65.80
2022-09-14T17:41:40.958Z,65.80
2022-09-14T17:44:10.681Z,65.60
2022-09-14T17:46:45.949Z,65.60
2022-09-14T17:49:18.480Z,65.30
2022-09-14T17:51:45.724Z,65.10
2022-09-14T17:54:13.231Z,64.50
2022-09-14T17:56:40.707Z,64.50
2022-09-14T17:59:20.735Z,64.70
2022-09-14T18:01:49.331Z,64.70
2022-09-14T18:04:17.356Z,64.70
2022-09-14T18:06:46.799Z,64.90
2022-09-14T18:09:16.477Z,64.90
2022-09-14T18:11:44.148Z,65.10
2022-09-14T18:14:13.916Z,65.20
2022-09-14T18:16:43.988Z,65.20
2022-09-14T18:19:11.697Z,65.30
2022-09-14T18:21:39.104Z,65.50
2022-09-14T18:24:06.450Z,65.50
2022-09-14T18:26:33.714Z,65.60
2022-09-14T18:29:03.653Z,65.70
2022-09-14T18:31:31.387Z,65.90
2022-09-14T18:34:00.394Z,66.00
2022-09-14T18:36:29.958Z,66.10
2022-09-14T18:38:58.918Z,66.10
2022-09-14T18:41:35.724Z,65.90
2022-09-14T18:44:03.183Z,66.20
2022-09-14T18:46:30.957Z,66.40
2022-09-14T18:49:03.245Z,66.20
2022-09-14T18:51:31.975Z,66.70
2022-09-14T18:54:03.195Z,66.40
2022-09-14T18:56:33.294Z,66.50
2022-09-14T18:59:02.248Z,66.10
2022-09-14T19:01:29.491Z,66.00
2022-09-14T19:03:57.740Z,66.40
2022-09-14T19:06:24.990Z,65.90
2022-09-14T19:08:52.858Z,66.00
2022-09-14T19:11:24.154Z,65.90
2022-09-14T19:13:58.222Z,65.90
2022-09-14T19:16:25.958Z,66.20
2022-09-14T19:18:53.794Z,66.10
2022-09-14T19:21:25.263Z,62.40
2022-09-14T19:24:00.752Z,61.70
2022-09-14T19:26:32.640Z,61.30
2022-09-14T19:29:04.254Z,60.70
2022-09-14T19:31:33.702Z,59.70
2022-09-14T19:34:02.588Z,59.50
2022-09-14T19:36:31.189Z,59.50
2022-09-14T19:39:02.028Z,59.30
2022-09-14T19:41:34.075Z,59.30
2022-09-14T19:44:02.122Z,59.40
2022-09-14T19:46:31.585Z,59.30
2022-09-14T19:48:59.028Z,59.50
2022-09-14T19:51:28.469Z,59.20
2022-09-14T19:54:00.561Z,59.30
2022-09-14T19:56:30.409Z,59.50
2022-09-14T19:59:00.916Z,59.60
2022-09-14T20:01:31.693Z,59.60
2022-09-14T20:03:59.418Z,59.80
2022-09-14T20:06:35.739Z,59.80
2022-09-14T20:09:09.200Z,59.90
2022-09-14T20:11:49.318Z,59.70
2022-09-14T20:14:21.916Z,59.80
2022-09-14T20:16:59.307Z,59.70
2022-09-14T20:19:28.800Z,60.00
2022-09-14T20:21:56.697Z,60.20
2022-09-14T20:24:26.629Z,60.20
2022-09-14T20:26:58.367Z,60.30
2022-09-14T20:29:31.886Z,60.40
2022-09-14T20:32:00.264Z,60.50
2022-09-14T20:34:27.484Z,60.60
2022-09-14T20:36:55.171Z,60.90
2022-09-14T20:39:23.736Z,60.90
2022-09-14T20:41:52.923Z,61.10
2022-09-14T20:44:22.465Z,61.10
2022-09-14T20:46:51.431Z,61.50
2022-09-14T20:49:22.209Z,61.90
2022-09-14T20:51:49.786Z,62.60
2022-09-14T20:54:18.129Z,63.20
2022-09-14T20:56:49.099Z,63.20
2022-09-14T20:59:18.199Z,63.50
2022-09-14T21:01:47.695Z,63.80
2022-09-14T21:04:20.696Z,64.10
2022-09-14T21:06:53.223Z,64.40
2022-09-14T21:09:23.553Z,64.70
2022-09-14T21:11:51.530Z,65.10
2022-09-14T21:14:20.478Z,65.40
2022-09-14T21:16:52.022Z,65.70
2022-09-14T21:19:27.244Z,66.00
2022-09-14T21:21:54.716Z,66.40
2022-09-14T21:24:23.050Z,66.60
2022-09-14T21:26:50.776Z,66.70
2022-09-14T21:29:22.939Z,67.00
2022-09-14T21:31:51.003Z,67.10
2022-09-14T21:34:19.179Z,67.40
2022-09-14T21:36:49.434Z,67.30
2022-09-14T21:39:24.634Z,67.30
2022-09-14T21:41:59.244Z,67.40
2022-09-14T21:44:34.395Z,67.60
2022-09-14T21:47:03.098Z,67.90
2022-09-14T21:49:30.572Z,67.90
2022-09-14T21:51:57.802Z,68.00
2022-09-14T21:54:25.033Z,68.10
2022-09-14T21:56:53.277Z,68.30
2022-09-14T21:59:22.786Z,68.20
2022-09-14T22:01:50.329Z,68.30
2022-09-14T22:04:20.351Z,68.30
2022-09-14T22:06:47.692Z,68.10
2022-09-14T22:09:16.907Z,67.80
2022-09-14T22:11:44.493Z,67.70
2022-09-14T22:14:20.747Z,67.40
2022-09-14T22:16:48.974Z,67.10
2022-09-14T22:19:28.808Z,67.00
2022-09-14T22:21:56.810Z,67.00
2022-09-14T22:24:37.832Z,67.00
2022-09-14T22:27:06.822Z,67.20
2022-09-14T22:29:34.172Z,67.20
2022-09-14T22:32:01.554Z,67.20
2022-09-14T22:34:29.015Z,67.40
2022-09-14T22:36:56.322Z,67.30
2022-09-14T22:39:23.954Z,67.20
2022-09-14T22:41:51.290Z,67.20
2022-09-14T22:44:18.505Z,67.30
2022-09-14T22:46:46.899Z,67.40
2022-09-14T22:49:14.053Z,67.40
2022-09-14T22:51:41.427Z,67.30
2022-09-14T22:54:08.699Z,67.50
2022-09-14T22:56:38.393Z,67.40
2022-09-14T22:59:08.815Z,67.40
2022-09-14T23:01:39.626Z,67.50
2022-09-14T23:04:10.138Z,67.50
2022-09-14T23:06:39.859Z,67.70
2022-09-14T23:09:09.324Z,67.70
2022-09-14T23:11:37.990Z,67.90
2022-09-14T23:14:05.253Z,68.00
2022-09-14T23:16:33.348Z,68.10
2022-09-14T23:19:02.727Z,68.10
2022-09-14T23:21:31.488Z,68.20
2022-09-14T23:24:01.351Z,68.30
2022-09-14T23:26:29.577Z,68.40
2022-09-14T23:28:59.694Z,68.00
2022-09-14T23:31:29.831Z,67.90
2022-09-14T23:33:59.091Z,67.40
2022-09-14T23:36:27.257Z,66.80
2022-09-14T23:38:54.676Z,66.60
2022-09-14T23:41:24.062Z,66.30
2022-09-14T23:43:52.103Z,65.90
2022-09-14T23:46:20.483Z,65.50
2022-09-14T23:48:48.023Z,65.20
2022-09-14T23:51:18.773Z,65.00
2022-09-14T23:53:46.238Z,64.70
2022-09-14T23:56:14.206Z,64.30
2022-09-14T23:58:42.380Z,64.10
